Time;durP1;ratioP1;P1;durP2;ratioP2;P2;SDS_P1;SDS_P2;PMS_P1;PMS_P2;Temp;Humidity;BMP_temperature;BMP_pressure;BME280_temperature;BME280_humidity;BME280_pressure;Samples;Min_cycle;Max_cycle;Signal;HPM_P1;HPM_P2
2021/12/29 00:00:55;;;;;;;13.50;8.87;;;;;;;1.23;100.00;98999.16;5004951;28;20786;-73
2021/12/29 00:03:22;;;;;;;17.90;9.27;;;;;;;1.22;100.00;99009.44;5003601;28;20215;-73
2021/12/29 00:05:48;;;;;;;15.73;9.23;;;;;;;1.22;100.00;99009.44;5008457;28;20799;-72
2021/12/29 00:08:15;;;;;;;14.17;9.17;;;;;;;1.23;100.00;99014.56;5003798;28;20212;-72
2021/12/29 00:10:43;;;;;;;16.67;9.30;;;;;;;1.22;100.00;99015.41;5004458;28;20583;-73
2021/12/29 00:13:09;;;;;;;14.87;9.27;;;;;;;1.22;100.00;99024.84;5006986;28;20216;-73
2021/12/29 00:15:36;;;;;;;14.43;8.80;;;;;;;1.21;100.00;99023.13;5005757;28;20621;-73
2021/12/29 00:18:03;;;;;;;13.70;8.63;;;;;;;1.19;100.00;99022.31;5008685;28;20726;-73
2021/12/29 00:20:31;;;;;;;15.63;9.17;;;;;;;1.23;100.00;99023.94;5006166;28;20207;-73
2021/12/29 00:23:00;;;;;;;14.57;8.53;;;;;;;1.19;100.00;99023.13;5008116;28;20204;-73
2021/12/29 00:25:26;;;;;;;16.60;9.33;;;;;;;1.21;100.00;99028.25;5007278;28;20216;-73
2021/12/29 00:27:55;;;;;;;13.80;8.60;;;;;;;1.20;100.00;99029.16;5003749;28;20593;-73
2021/12/29 00:30:23;;;;;;;15.33;8.50;;;;;;;1.19;100.00;99028.28;5003198;28;20196;-72
2021/12/29 00:32:56;;;;;;;14.67;9.33;;;;;;;1.19;100.00;99037.72;5003492;28;20650;-73
2021/12/29 00:35:49;;;;;;;13.77;8.77;;;;;;;1.18;100.00;99036.88;4991894;28;20215;-72
2021/12/29 00:38:54;;;;;;;15.80;9.10;;;;;;;1.20;100.00;99044.56;4983223;28;20213;-72
2021/12/29 00:41:53;;;;;;;14.70;8.93;;;;;;;1.20;100.00;99053.09;4986754;28;20244;-73
2021/12/29 00:44:23;;;;;;;17.00;9.13;;;;;;;1.24;100.00;99061.59;4996540;28;20231;-73
2021/12/29 00:47:01;;;;;;;16.30;9.30;;;;;;;1.24;100.00;99059.03;5010515;28;21218;-73
2021/12/29 00:49:32;;;;;;;16.67;10.27;;;;;;;1.23;100.00;99063.34;5001374;28;21354;-72
2021/12/29 00:51:59;;;;;;;18.67;10.17;;;;;;;1.23;100.00;99058.19;5010522;28;20223;-73
2021/12/29 00:54:26;;;;;;;17.10;8.97;;;;;;;1.22;100.00;99061.63;5003383;28;20211;-72
2021/12/29 00:56:52;;;;;;;14.70;9.53;;;;;;;1.23;100.00;99058.19;5007554;28;20216;-73
2021/12/29 00:59:19;;;;;;;17.87;9.40;;;;;;;1.24;100.00;99062.44;5002319;28;20208;-72
2021/12/29 01:01:47;;;;;;;14.20;9.07;;;;;;;1.24;100.00;99065.00;5012635;28;20298;-73
2021/12/29 01:04:14;;;;;;;16.40;9.73;;;;;;;1.23;100.00;99068.47;5004878;28;20209;-73
2021/12/29 01:06:40;;;;;;;14.20;9.03;;;;;;;1.24;100.00;99066.75;5013585;28;20228;-73
2021/12/29 01:09:07;;;;;;;18.30;9.13;;;;;;;1.22;100.00;99066.75;5002867;28;20201;-73
2021/12/29 01:11:33;;;;;;;17.57;9.17;;;;;;;1.22;100.00;99079.59;5011269;28;20235;-73
2021/12/29 01:14:00;;;;;;;16.70;8.90;;;;;;;1.22;100.00;99079.59;5004734;28;20218;-72
2021/12/29 01:16:39;;;;;;;15.73;9.53;;;;;;;1.20;100.00;99085.63;5005308;28;20295;-72
2021/12/29 01:19:13;;;;;;;18.50;8.97;;;;;;;1.18;100.00;99084.78;5006190;28;20277;-73
2021/12/29 01:21:42;;;;;;;16.70;9.37;;;;;;;1.18;100.00;99093.34;5005230;28;20215;-72
2021/12/29 01:24:10;;;;;;;14.37;8.83;;;;;;;1.18;100.00;99093.34;5003603;28;20658;-72
2021/12/29 01:26:37;;;;;;;16.40;8.77;;;;;;;1.17;100.00;99094.22;5004207;28;20248;-73
2021/12/29 01:29:04;;;;;;;13.90;8.40;;;;;;;1.19;100.00;99092.47;5001963;28;20243;-72
2021/12/29 01:31:31;;;;;;;19.00;8.53;;;;;;;1.18;100.00;99093.34;5009133;28;20224;-73
2021/12/29 01:33:59;;;;;;;18.63;9.20;;;;;;;1.16;100.00;99100.19;4999986;28;20650;-73
2021/12/29 01:36:28;;;;;;;15.83;8.90;;;;;;;1.14;100.00;99109.63;4997565;28;20664;-73
2021/12/29 01:38:54;;;;;;;13.93;8.90;;;;;;;1.12;100.00;99113.94;5002707;28;20216;-72
2021/12/29 01:41:21;;;;;;;15.13;8.53;;;;;;;1.09;100.00;99116.53;5005698;28;20235;-72
2021/12/29 01:43:47;;;;;;;13.80;8.20;;;;;;;1.07;100.00;99120.84;5002163;28;20689;-73
2021/12/29 01:46:13;;;;;;;16.03;9.13;;;;;;;1.05;100.00;99120.88;5004999;28;20589;-72
2021/12/29 01:48:40;;;;;;;13.53;8.47;;;;;;;1.04;100.00;99120.88;4998037;28;20212;-73
2021/12/29 01:51:06;;;;;;;15.10;8.57;;;;;;;1.04;100.00;99120.88;5003991;28;20306;-73
2021/12/29 01:53:35;;;;;;;17.70;9.37;;;;;;;1.04;100.00;99123.44;5000528;28;20208;-73
2021/12/29 01:56:03;;;;;;;17.57;8.67;;;;;;;1.04;100.00;99120.88;5007696;28;20278;-72
2021/12/29 01:58:30;;;;;;;14.80;7.93;;;;;;;1.05;100.00;99126.00;4996696;28;20693;-72
2021/12/29 02:00:59;;;;;;;14.23;8.30;;;;;;;1.05;100.00;99126.00;5001377;28;20224;-73
2021/12/29 02:03:26;;;;;;;19.67;8.30;;;;;;;1.05;100.00;99125.16;4999676;28;20209;-73
2021/12/29 02:05:53;;;;;;;18.63;7.90;;;;;;;1.05;100.00;99131.13;5005489;28;20708;-73
2021/12/29 02:08:22;;;;;;;13.37;8.13;;;;;;;1.05;100.00;99126.00;4999560;28;20677;-72
2021/12/29 02:10:51;;;;;;;13.37;8.10;;;;;;;1.03;100.00;99129.47;5005878;28;20223;-72
2021/12/29 02:13:18;;;;;;;12.83;7.80;;;;;;;0.98;100.00;99134.63;4999368;28;20215;-72
2021/12/29 02:15:45;;;;;;;20.07;8.30;;;;;;;0.92;100.00;99133.00;5005168;28;20203;-72
2021/12/29 02:18:14;;;;;;;12.73;7.23;;;;;;;0.89;100.00;99133.03;4998181;28;20216;-73
2021/12/29 02:20:45;;;;;;;13.17;7.50;;;;;;;0.83;100.00;99138.22;5005183;28;20318;-73
2021/12/29 02:23:14;;;;;;;14.37;7.83;;;;;;;0.76;100.00;99144.28;5001913;28;20243;-72
2021/12/29 02:25:49;;;;;;;14.40;8.03;;;;;;;0.68;100.00;99149.47;5004629;28;20231;-73
2021/12/29 02:28:18;;;;;;;14.43;7.87;;;;;;;0.59;100.00;99147.00;5000842;28;20213;-72
2021/12/29 02:30:47;;;;;;;16.43;7.97;;;;;;;0.51;100.00;99149.66;5003397;28;20220;-73
2021/12/29 02:33:15;;;;;;;14.83;7.50;;;;;;;0.42;100.00;99154.84;5000013;28;20228;-73
2021/12/29 02:35:44;;;;;;;14.67;7.13;;;;;;;0.35;100.00;99150.63;5002456;28;20283;-72
2021/12/29 02:38:18;;;;;;;13.43;6.83;;;;;;;0.26;100.00;99151.56;4997170;28;20203;-73
2021/12/29 02:40:45;;;;;;;14.10;7.23;;;;;;;0.19;100.00;99152.47;5004678;28;20227;-73
2021/12/29 02:43:18;;;;;;;12.73;7.30;;;;;;;0.15;100.00;99156.75;5001110;28;20705;-72
2021/12/29 02:45:49;;;;;;;13.40;6.93;;;;;;;0.11;100.00;99154.25;5003772;28;20221;-72
2021/12/29 02:48:15;;;;;;;10.93;6.50;;;;;;;0.04;100.00;99153.44;5001949;28;20305;-72
2021/12/29 02:50:43;;;;;;;13.73;7.07;;;;;;;-0.01;100.00;99163.72;5001267;28;20239;-72
2021/12/29 02:53:12;;;;;;;14.60;7.47;;;;;;;-0.06;100.00;99162.03;5000314;28;20209;-72
2021/12/29 02:55:38;;;;;;;13.97;7.03;;;;;;;-0.13;100.00;99161.22;5000642;28;20662;-72
2021/12/29 02:58:04;;;;;;;12.53;7.37;;;;;;;-0.18;100.00;99164.69;5000025;28;20216;-72
2021/12/29 03:00:31;;;;;;;16.37;7.87;;;;;;;-0.24;100.00;99158.72;5003970;28;20197;-72
2021/12/29 03:02:58;;;;;;;14.27;7.70;;;;;;;-0.29;100.00;99163.03;5000277;28;20789;-72
2021/12/29 03:05:26;;;;;;;18.53;7.33;;;;;;;-0.35;100.00;99169.88;5004302;28;20219;-73
2021/12/29 03:07:55;;;;;;;14.60;7.47;;;;;;;-0.44;100.00;99161.41;5001709;28;20211;-73
2021/12/29 03:10:21;;;;;;;15.37;7.57;;;;;;;-0.51;100.00;99167.41;5007568;28;20202;-72
2021/12/29 03:12:48;;;;;;;14.57;7.50;;;;;;;-0.55;100.00;99173.38;5002110;28;20215;-73
2021/12/29 03:15:14;;;;;;;18.37;7.77;;;;;;;-0.64;100.00;99169.16;5007239;28;20204;-73
2021/12/29 03:17:40;;;;;;;16.30;8.20;;;;;;;-0.67;100.00;99179.44;5005142;28;20706;-72
2021/12/29 03:20:09;;;;;;;19.60;8.43;;;;;;;-0.71;100.00;99170.03;5008451;28;20204;-73
2021/12/29 03:22:36;;;;;;;15.80;7.77;;;;;;;-0.74;100.00;99175.16;4999365;28;20220;-73
2021/12/29 03:25:04;;;;;;;14.10;7.80;;;;;;;-0.72;100.00;99180.28;5008197;28;20213;-72
2021/12/29 03:27:31;;;;;;;18.90;8.20;;;;;;;-0.76;100.00;99189.69;5004906;28;20232;-72
2021/12/29 03:29:57;;;;;;;18.40;8.70;;;;;;;-0.72;100.00;99193.06;5007689;28;20201;-72
2021/12/29 03:32:37;;;;;;;16.93;8.70;;;;;;;-0.70;100.00;99193.91;5002906;28;20228;-72
2021/12/29 03:35:04;;;;;;;16.63;9.20;;;;;;;-0.64;100.00;99204.16;5007805;28;20200;-72
2021/12/29 03:37:30;;;;;;;18.00;9.00;;;;;;;-0.61;100.00;99197.31;5003317;28;20206;-72
2021/12/29 03:39:57;;;;;;;27.67;9.70;;;;;;;-0.54;100.00;99195.59;5006098;28;20212;-73
2021/12/29 03:42:24;;;;;;;25.00;9.63;;;;;;;-0.50;100.00;99196.44;5001560;28;20236;-72
2021/12/29 03:44:51;;;;;;;18.90;9.57;;;;;;;-0.47;100.00;99191.31;5006114;28;20669;-73
2021/12/29 03:47:17;;;;;;;17.90;9.40;;;;;;;-0.45;100.00;99192.97;5002416;28;20224;-73
2021/12/29 03:49:44;;;;;;;20.00;9.70;;;;;;;-0.48;100.00;99199.81;5001415;28;20205;-72
2021/12/29 03:52:10;;;;;;;20.93;9.93;;;;;;;-0.52;100.00;99213.50;5003615;28;20244;-73
2021/12/29 03:54:36;;;;;;;17.97;9.33;;;;;;;-0.53;100.00;99219.47;5004068;28;20200;-73
2021/12/29 03:57:03;;;;;;;20.00;10.00;;;;;;;-0.49;100.00;99224.59;5006026;28;20212;-72
2021/12/29 03:59:31;;;;;;;18.87;9.90;;;;;;;-0.49;100.00;99232.28;5005804;28;20204;-73
2021/12/29 04:01:57;;;;;;;22.77;10.67;;;;;;;-0.45;100.00;99236.53;5002288;28;20236;-73
2021/12/29 04:04:24;;;;;;;28.13;10.97;;;;;;;-0.43;100.00;99232.22;5007533;28;20204;-73
2021/12/29 04:06:50;;;;;;;22.07;9.93;;;;;;;-0.33;100.00;99229.66;5003045;28;20227;-73
2021/12/29 04:09:17;;;;;;;29.43;9.83;;;;;;;-0.27;100.00;99242.44;5005856;28;20816;-72
2021/12/29 04:11:49;;;;;;;22.23;9.97;;;;;;;-0.25;100.00;99241.56;5004433;28;20320;-72
2021/12/29 04:14:16;;;;;;;20.67;10.57;;;;;;;-0.24;100.00;99238.13;5001827;28;20219;-73
2021/12/29 04:16:46;;;;;;;23.53;10.17;;;;;;;-0.20;100.00;99249.22;5001736;28;20220;-73
2021/12/29 04:19:28;;;;;;;25.40;11.90;;;;;;;-0.20;100.00;99249.22;5002519;28;20235;-72
2021/12/29 04:21:55;;;;;;;21.10;10.43;;;;;;;-0.16;100.00;99250.91;5003864;28;20811;-72
2021/12/29 04:24:21;;;;;;;24.30;11.03;;;;;;;-0.14;100.00;99256.03;5005563;28;20201;-72
2021/12/29 04:26:48;;;;;;;21.50;11.07;;;;;;;-0.12;100.00;99260.31;5002179;28;20223;-73
2021/12/29 04:29:14;;;;;;;30.50;10.77;;;;;;;-0.07;100.00;99260.25;5006280;28;20207;-73
2021/12/29 04:31:41;;;;;;;25.70;10.87;;;;;;;-0.08;100.00;99264.53;5002468;28;20252;-73
2021/12/29 04:34:09;;;;;;;18.00;10.07;;;;;;;-0.03;100.00;99272.22;5005088;28;20208;-73
2021/12/29 04:36:36;;;;;;;23.87;10.80;;;;;;;0.04;100.00;99270.50;5002715;28;20199;-73
2021/12/29 04:39:05;;;;;;;30.07;11.93;;;;;;;0.10;100.00;99278.97;5007403;28;20211;-72
2021/12/29 04:41:32;;;;;;;18.43;10.40;;;;;;;0.18;100.00;99278.94;5001989;28;20679;-73
2021/12/29 04:43:58;;;;;;;23.73;11.17;;;;;;;0.24;100.00;99278.91;5004782;28;20214;-73
2021/12/29 04:46:35;;;;;;;27.10;12.07;;;;;;;0.29;100.00;99291.72;5002998;28;20227;-72
2021/12/29 04:49:02;;;;;;;21.37;10.97;;;;;;;0.37;100.00;99285.69;5004051;28;20211;-73
2021/12/29 04:51:35;;;;;;;23.77;11.03;;;;;;;0.42;100.00;99290.75;5000870;28;20220;-72
2021/12/29 04:54:03;;;;;;;28.23;11.33;;;;;;;0.50;100.00;99301.81;5004091;28;20275;-72
2021/12/29 04:56:30;;;;;;;26.37;11.23;;;;;;;0.54;100.00;99303.50;5002025;28;20681;-73
2021/12/29 04:58:56;;;;;;;22.33;11.30;;;;;;;0.59;100.00;99305.19;5003454;28;20200;-72
2021/12/29 05:01:22;;;;;;;29.80;11.83;;;;;;;0.63;100.00;99312.00;5002568;28;20701;-72
2021/12/29 05:03:49;;;;;;;25.87;11.37;;;;;;;0.66;100.00;99319.69;5004025;28;20231;-73
2021/12/29 05:09:01;;;;;;;22.83;10.63;;;;;;;0.72;100.00;99319.63;5004974;28;20197;-72
2021/12/29 05:11:27;;;;;;;21.50;10.17;;;;;;;0.72;100.00;99320.50;5004229;28;20223;-73
2021/12/29 05:13:55;;;;;;;26.40;12.07;;;;;;;0.77;100.00;99327.31;5003710;28;20215;-73
2021/12/29 05:16:22;;;;;;;23.17;10.33;;;;;;;0.79;100.00;99326.41;5002792;28;20678;-72
2021/12/29 05:18:48;;;;;;;23.43;10.77;;;;;;;0.83;100.00;99340.97;5002881;28;20259;-73
2021/12/29 05:21:15;;;;;;;23.53;11.20;;;;;;;0.83;100.00;99343.53;5003762;28;20228;-74
2021/12/29 05:23:42;;;;;;;20.47;9.57;;;;;;;0.85;100.00;99341.78;5004114;28;20205;-72
2021/12/29 05:26:09;;;;;;;21.63;10.33;;;;;;;0.88;100.00;99348.59;5003075;28;20746;-72
2021/12/29 05:28:36;;;;;;;19.33;10.80;;;;;;;0.91;100.00;99346.03;5003863;28;20677;-72
2021/12/29 05:31:02;;;;;;;22.20;10.27;;;;;;;0.93;100.00;99350.28;5002564;28;20582;-72
2021/12/29 05:33:28;;;;;;;20.70;10.43;;;;;;;0.93;100.00;99342.59;5004033;28;20197;-72
2021/12/29 05:35:55;;;;;;;21.30;10.57;;;;;;;0.98;100.00;99351.97;5003905;28;20800;-73
2021/12/29 05:38:22;;;;;;;19.83;10.00;;;;;;;0.99;100.00;99353.69;4997339;28;20197;-73
2021/12/29 05:40:50;;;;;;;21.50;9.87;;;;;;;1.02;100.00;99361.34;5004396;28;20232;-72
2021/12/29 05:43:18;;;;;;;20.83;10.07;;;;;;;1.02;100.00;99354.50;5002240;28;20216;-72
2021/12/29 05:45:44;;;;;;;24.83;11.20;;;;;;;1.02;100.00;99369.91;5001722;28;20216;-72
2021/12/29 05:48:11;;;;;;;23.37;10.93;;;;;;;1.03;100.00;99371.59;5001284;28;20224;-72
2021/12/29 05:50:37;;;;;;;20.40;10.80;;;;;;;1.05;100.00;99374.16;5001895;28;20232;-72
2021/12/29 05:53:04;;;;;;;19.43;9.60;;;;;;;1.05;100.00;99380.13;5003302;28;20201;-73
2021/12/29 05:55:31;;;;;;;21.63;10.17;;;;;;;1.07;100.00;99381.00;5001553;28;20204;-72
2021/12/29 05:57:57;;;;;;;22.90;10.70;;;;;;;1.08;100.00;99376.72;4998882;28;20569;-71
2021/12/29 06:00:27;;;;;;;17.43;9.20;;;;;;;1.09;100.00;99388.66;5003314;28;20573;-73
2021/12/29 06:02:55;;;;;;;22.87;9.93;;;;;;;1.09;100.00;99383.53;4997694;28;20209;-72
2021/12/29 06:05:23;;;;;;;17.57;9.00;;;;;;;1.09;100.00;99393.81;5004797;28;20213;-73
2021/12/29 06:07:49;;;;;;;23.40;10.33;;;;;;;1.11;100.00;99390.38;5002631;28;20212;-76
2021/12/29 06:10:15;;;;;;;17.20;9.40;;;;;;;1.11;100.00;99382.69;5002457;28;20220;-76
2021/12/29 06:12:42;;;;;;;17.37;9.17;;;;;;;1.12;100.00;99389.50;5001909;28;20215;-72
2021/12/29 06:15:10;;;;;;;18.83;8.83;;;;;;;1.13;100.00;99392.94;5002143;28;20194;-72
2021/12/29 06:17:38;;;;;;;21.37;9.90;;;;;;;1.15;100.00;99392.94;5002397;28;20239;-72
2021/12/29 06:20:06;;;;;;;24.17;9.47;;;;;;;1.14;100.00;99399.75;5002120;28;20209;-72
2021/12/29 06:22:33;;;;;;;19.20;9.77;;;;;;;1.17;100.00;99404.03;5000650;28;20221;-72
2021/12/29 06:24:59;;;;;;;20.47;10.13;;;;;;;1.18;100.00;99403.16;5002722;28;20205;-72
2021/12/29 06:27:26;;;;;;;22.33;9.20;;;;;;;1.19;100.00;99405.72;5000747;28;20762;-72
2021/12/29 06:29:53;;;;;;;15.97;8.93;;;;;;;1.20;100.00;99415.13;5003116;28;20288;-72
2021/12/29 06:32:20;;;;;;;19.40;8.90;;;;;;;1.21;100.00;99421.94;5001349;28;20228;-73
2021/12/29 06:34:48;;;;;;;21.80;8.93;;;;;;;1.18;100.00;99429.69;4998336;28;20215;-72
2021/12/29 06:37:15;;;;;;;16.97;8.27;;;;;;;1.18;100.00;99437.41;5001060;28;20204;-72
2021/12/29 06:39:42;;;;;;;17.23;9.03;;;;;;;1.18;100.00;99449.38;5007789;28;20204;-72
2021/12/29 06:42:10;;;;;;;20.63;9.20;;;;;;;1.19;100.00;99444.22;5005895;28;20251;-72
2021/12/29 06:44:36;;;;;;;20.93;8.87;;;;;;;1.20;100.00;99447.66;5003979;28;20213;-74
2021/12/29 06:47:03;;;;;;;19.10;9.67;;;;;;;1.23;100.00;99445.94;5003088;28;20223;-72
2021/12/29 06:49:30;;;;;;;21.43;9.60;;;;;;;1.25;100.00;99448.47;5004093;28;20211;-73
2021/12/29 06:51:58;;;;;;;20.17;9.83;;;;;;;1.24;100.00;99457.88;5004246;28;20222;-72
2021/12/29 06:54:24;;;;;;;23.00;9.97;;;;;;;1.25;100.00;99454.47;5005502;28;20204;-72
2021/12/29 06:56:50;;;;;;;22.07;10.13;;;;;;;1.25;100.00;99467.31;5003406;28;20201;-73
2021/12/29 06:59:17;;;;;;;21.27;10.23;;;;;;;1.25;100.00;99469.00;5009074;28;20546;-73
2021/12/29 07:01:43;;;;;;;23.70;11.00;;;;;;;1.27;100.00;99481.00;4999519;28;20907;-72
2021/12/29 07:04:10;;;;;;;18.47;10.17;;;;;;;1.28;100.00;99492.09;5003722;28;20205;-72
2021/12/29 07:06:36;;;;;;;23.57;9.10;;;;;;;1.30;100.00;99490.38;5004526;28;20208;-72
2021/12/29 07:09:05;;;;;;;21.77;9.93;;;;;;;1.30;100.00;99493.81;5004109;28;20658;-73
2021/12/29 07:11:31;;;;;;;22.63;11.47;;;;;;;1.30;100.00;99496.38;5004196;28;20239;-73
2021/12/29 07:14:00;;;;;;;28.20;12.50;;;;;;;1.31;100.00;99494.66;5006855;28;20208;-72
2021/12/29 07:16:26;;;;;;;18.50;10.43;;;;;;;1.30;100.00;99503.22;5001546;28;20208;-72
2021/12/29 07:18:53;;;;;;;20.77;11.23;;;;;;;1.27;100.00;99501.53;5005990;28;20212;-73
2021/12/29 07:21:20;;;;;;;28.70;15.03;;;;;;;1.30;100.00;99516.94;5003849;28;20236;-73
2021/12/29 07:23:46;;;;;;;19.47;11.00;;;;;;;1.32;100.00;99511.78;5007221;28;20208;-72
2021/12/29 07:26:14;;;;;;;21.70;10.30;;;;;;;1.36;100.00;99518.59;5006645;28;20212;-72
2021/12/29 07:28:40;;;;;;;20.67;10.47;;;;;;;1.40;100.00;99530.56;5005692;28;20213;-72
2021/12/29 07:31:08;;;;;;;31.87;14.00;;;;;;;1.38;100.00;99526.31;4999332;28;20279;-73
2021/12/29 07:33:34;;;;;;;52.83;23.70;;;;;;;1.38;100.00;99522.00;5003371;28;20201;-72
2021/12/29 07:36:01;;;;;;;37.67;17.70;;;;;;;1.40;100.00;99527.13;5004173;28;20238;-73
2021/12/29 07:38:28;;;;;;;33.27;14.90;;;;;;;1.41;100.00;99539.97;5003023;28;20192;-72
2021/12/29 07:40:54;;;;;;;27.17;14.50;;;;;;;1.43;100.00;99542.53;5004491;28;20232;-72
2021/12/29 07:43:22;;;;;;;34.00;16.07;;;;;;;1.43;100.00;99548.53;5005504;28;20212;-73
2021/12/29 07:45:50;;;;;;;37.50;17.83;;;;;;;1.43;100.00;99553.66;5001451;28;20270;-72
2021/12/29 07:48:19;;;;;;;53.70;24.87;;;;;;;1.43;100.00;99552.81;5001802;28;20574;-72
2021/12/29 07:50:45;;;;;;;68.53;31.43;;;;;;;1.45;100.00;99559.63;4997904;28;20228;-73
2021/12/29 07:53:12;;;;;;;189.83;67.17;;;;;;;1.47;100.00;99554.50;5003071;28;20231;-73
2021/12/29 07:55:38;;;;;;;88.90;36.53;;;;;;;1.49;100.00;99553.59;5004960;28;20207;-73
2021/12/29 07:58:04;;;;;;;47.93;20.93;;;;;;;1.50;100.00;99565.59;5006186;28;20201;-73
2021/12/29 08:00:32;;;;;;;36.40;16.60;;;;;;;1.52;100.00;99571.59;5004384;28;20204;-73
2021/12/29 08:02:59;;;;;;;33.07;16.60;;;;;;;1.54;100.00;99569.00;5007940;28;20211;-73
2021/12/29 08:05:25;;;;;;;27.20;14.83;;;;;;;1.56;100.00;99569.00;5006188;28;20721;-73
2021/12/29 08:07:52;;;;;;;26.07;12.70;;;;;;;1.58;100.00;99565.53;5003195;28;20205;-73
2021/12/29 08:10:18;;;;;;;25.30;12.57;;;;;;;1.61;100.00;99575.81;4999752;28;20213;-72
2021/12/29 08:12:45;;;;;;;25.27;12.10;;;;;;;1.62;100.00;99586.94;5004554;28;20480;-73
2021/12/29 08:15:12;;;;;;;32.27;12.13;;;;;;;1.64;100.00;99582.66;5003846;28;20207;-72
2021/12/29 08:17:40;;;;;;;26.90;10.57;;;;;;;1.64;100.00;99580.94;5005239;28;20200;-72
2021/12/29 08:20:09;;;;;;;23.03;10.17;;;;;;;1.67;100.00;99585.19;5000582;28;20204;-73
2021/12/29 08:22:35;;;;;;;24.17;10.67;;;;;;;1.67;100.00;99578.34;5002860;28;20212;-73
2021/12/29 08:25:02;;;;;;;26.10;10.33;;;;;;;1.73;100.00;99584.31;5005121;28;20664;-73
2021/12/29 08:27:28;;;;;;;22.13;11.50;;;;;;;1.74;100.00;99593.72;5004791;28;20220;-72
2021/12/29 08:29:54;;;;;;;27.87;12.70;;;;;;;1.76;100.00;99586.84;5002432;28;20223;-72
2021/12/29 08:32:21;;;;;;;25.17;10.23;;;;;;;1.79;100.00;99586.84;5007251;28;20231;-72
2021/12/29 08:34:49;;;;;;;21.20;9.07;;;;;;;1.81;100.00;99585.09;5003301;28;20205;-73
2021/12/29 08:37:15;;;;;;;20.63;10.23;;;;;;;1.82;100.00;99585.09;5004065;28;20227;-72
2021/12/29 08:39:41;;;;;;;21.30;10.87;;;;;;;1.85;100.00;99586.81;5004910;28;20221;-73
2021/12/29 08:42:08;;;;;;;17.23;8.90;;;;;;;1.87;100.00;99593.63;5001698;28;20212;-73
2021/12/29 08:44:34;;;;;;;19.33;10.30;;;;;;;1.89;100.00;99594.47;5003546;28;20216;-73
2021/12/29 08:47:00;;;;;;;17.07;10.23;;;;;;;1.91;100.00;99602.16;5005543;28;20205;-73
2021/12/29 08:49:27;;;;;;;15.37;9.67;;;;;;;1.93;100.00;99604.75;5001872;28;20602;-74
2021/12/29 08:51:54;;;;;;;19.60;10.03;;;;;;;1.95;100.00;99615.84;5001271;28;20227;-75
2021/12/29 08:54:21;;;;;;;21.87;10.33;;;;;;;1.97;100.00;99629.53;5003555;28;20291;-73
2021/12/29 08:56:48;;;;;;;22.40;10.47;;;;;;;2.02;100.00;99636.41;5001269;28;20193;-73
2021/12/29 08:59:15;;;;;;;20.80;10.07;;;;;;;2.05;100.00;99648.34;5003801;28;20235;-73
2021/12/29 09:01:41;;;;;;;23.23;11.40;;;;;;;2.07;100.00;99646.63;4999066;28;20229;-74
2021/12/29 09:04:08;;;;;;;25.57;10.80;;;;;;;2.09;100.00;99655.19;5004036;28;20678;-73
2021/12/29 09:06:35;;;;;;;25.40;10.30;;;;;;;2.11;100.00;99652.59;4999033;28;20201;-72
2021/12/29 09:09:04;;;;;;;19.43;9.73;;;;;;;2.13;100.00;99649.16;5004494;28;20217;-73
2021/12/29 09:11:30;;;;;;;16.20;9.43;;;;;;;2.16;100.00;99658.56;5000014;28;20227;-73
2021/12/29 09:13:57;;;;;;;21.30;9.47;;;;;;;2.19;100.00;99667.09;5004500;28;20196;-73
2021/12/29 09:16:24;;;;;;;20.63;10.20;;;;;;;2.22;100.00;99664.53;5003230;28;20200;-74
2021/12/29 09:18:50;;;;;;;18.93;9.73;;;;;;;2.24;100.00;99659.38;5001572;28;20846;-73
2021/12/29 09:21:18;;;;;;;25.83;10.47;;;;;;;2.27;100.00;99660.19;5004530;28;20220;-73
2021/12/29 09:23:46;;;;;;;18.67;9.60;;;;;;;2.30;100.00;99664.44;5005096;28;20216;-73
2021/12/29 09:26:17;;;;;;;23.10;10.43;;;;;;;2.35;100.00;99672.16;5000392;28;20275;-72
2021/12/29 09:28:46;;;;;;;21.57;11.17;;;;;;;2.38;100.00;99672.97;5003093;28;20229;-73
2021/12/29 09:31:14;;;;;;;23.33;11.43;;;;;;;2.41;100.00;99678.09;5002275;28;20228;-73
2021/12/29 09:33:41;;;;;;;21.80;10.27;;;;;;;2.42;100.00;99677.22;5004450;28;20622;-72
2021/12/29 09:36:08;;;;;;;22.03;10.47;;;;;;;2.45;100.00;99684.91;5001140;28;20208;-73
2021/12/29 09:38:36;;;;;;;18.97;9.33;;;;;;;2.47;100.00;99683.19;5004187;28;20204;-73
2021/12/29 09:41:04;;;;;;;21.60;8.90;;;;;;;2.51;100.00;99683.16;4998776;28;20258;-73
2021/12/29 09:43:32;;;;;;;21.53;8.63;;;;;;;2.55;100.00;99687.41;5004440;28;20712;-73
2021/12/29 09:45:59;;;;;;;21.37;8.37;;;;;;;2.55;100.00;99685.72;5001601;28;20205;-73
2021/12/29 09:48:25;;;;;;;16.33;7.83;;;;;;;2.59;100.00;99694.25;5004644;28;20232;-73
2021/12/29 09:50:54;;;;;;;17.17;7.83;;;;;;;2.61;100.00;99695.09;4999712;28;20227;-73
2021/12/29 09:53:22;;;;;;;17.37;7.33;;;;;;;2.62;100.00;99689.94;5005608;28;20350;-73
2021/12/29 09:55:48;;;;;;;25.13;8.40;;;;;;;2.66;100.00;99690.75;4998140;28;20228;-72
2021/12/29 09:58:17;;;;;;;14.33;7.43;;;;;;;2.70;100.00;99687.28;5004807;28;20205;-73
2021/12/29 10:00:47;;;;;;;15.03;6.10;;;;;;;2.74;100.00;99685.53;4999433;28;20228;-72
2021/12/29 10:03:15;;;;;;;14.33;6.83;;;;;;;2.78;100.00;99689.78;5005395;28;20196;-72
2021/12/29 10:05:44;;;;;;;16.53;6.67;;;;;;;2.80;100.00;99688.06;5002017;28;20204;-72
2021/12/29 10:08:15;;;;;;;16.10;6.10;;;;;;;2.84;100.00;99693.16;5002849;28;20225;-72
2021/12/29 10:10:45;;;;;;;12.33;6.70;;;;;;;2.87;100.00;99687.13;5001204;28;20252;-73
2021/12/29 10:13:12;;;;;;;18.80;6.20;;;;;;;2.90;100.00;99688.81;5004379;28;20263;-73
2021/12/29 10:15:41;;;;;;;19.30;7.00;;;;;;;2.94;100.00;99690.53;4999221;28;20665;-73
2021/12/29 10:18:11;;;;;;;14.97;6.47;;;;;;;2.96;100.00;99689.63;5004063;28;20196;-73
2021/12/29 10:20:47;;;;;;;12.53;5.77;;;;;;;3.00;100.00;99693.00;4997659;28;20252;-73
2021/12/29 10:23:18;;;;;;;19.93;6.77;;;;;;;3.06;100.00;99697.25;5001823;28;20496;-75
2021/12/29 10:25:44;;;;;;;15.60;7.17;;;;;;;3.11;100.00;99701.47;5001674;28;20204;-73
2021/12/29 10:28:26;;;;;;;20.77;6.87;;;;;;;3.18;100.00;99694.53;5005116;28;20216;-73
2021/12/29 10:30:59;;;;;;;13.53;6.73;;;;;;;3.24;100.00;99694.50;5001696;28;20220;-73
2021/12/29 10:33:31;;;;;;;21.57;7.50;;;;;;;3.30;100.00;99689.25;5003358;28;20347;-73
2021/12/29 10:35:58;;;;;;;16.33;7.17;;;;;;;3.38;100.00;99684.03;4998617;28;20247;-72
2021/12/29 10:38:25;;;;;;;19.07;7.10;;;;;;;3.45;100.00;99684.78;5004405;28;20575;-73
2021/12/29 10:40:52;;;;;;;16.43;7.67;;;;;;;3.53;100.00;99688.97;4997844;28;20239;-73
2021/12/29 10:43:19;;;;;;;17.30;7.33;;;;;;;3.58;100.00;99683.78;5003222;28;20201;-73
2021/12/29 10:45:47;;;;;;;18.03;7.70;;;;;;;3.66;100.00;99679.38;5000825;28;20203;-73
2021/12/29 10:48:19;;;;;;;20.00;7.27;;;;;;;3.72;100.00;99679.28;5003313;28;20221;-73
2021/12/29 10:50:58;;;;;;;17.57;7.63;;;;;;;3.81;100.00;99685.22;4998585;28;20220;-73
2021/12/29 10:53:25;;;;;;;20.00;7.20;;;;;;;3.84;100.00;99680.88;5003524;28;20206;-73
2021/12/29 10:55:53;;;;;;;21.30;6.93;;;;;;;3.87;100.00;99677.38;4999319;28;20195;-72
2021/12/29 10:58:22;;;;;;;22.60;8.00;;;;;;;3.91;100.00;99682.47;5002400;28;20204;-73
2021/12/29 11:00:51;;;;;;;20.07;7.03;;;;;;;3.92;100.00;99679.03;5000880;28;20220;-73
2021/12/29 11:03:20;;;;;;;19.40;7.43;;;;;;;4.02;100.00;99684.06;5002666;28;20197;-73
2021/12/29 11:05:52;;;;;;;24.47;8.17;;;;;;;4.18;100.00;99683.78;4999037;28;20214;-73
2021/12/29 11:08:20;;;;;;;22.93;8.90;;;;;;;4.31;100.00;99681.91;5002634;28;20216;-73
2021/12/29 11:10:47;;;;;;;20.40;9.17;;;;;;;4.33;100.00;99684.47;5002026;28;20604;-73
2021/12/29 11:13:25;;;;;;;23.97;9.63;;;;;;;4.40;100.00;99682.59;5003104;28;20207;-74
2021/12/29 11:15:54;;;;;;;21.90;10.10;;;;;;;4.47;100.00;99692.84;5001399;28;20200;-73
2021/12/29 11:18:21;;;;;;;29.53;10.13;;;;;;;4.58;100.00;99697.81;5003061;28;20209;-73
2021/12/29 11:20:53;;;;;;;32.70;10.07;;;;;;;4.63;100.00;99695.16;4991922;28;20236;-73
2021/12/29 11:23:23;;;;;;;25.67;9.80;;;;;;;4.70;100.00;99701.94;4999420;28;20732;-73
2021/12/29 11:25:51;;;;;;;21.00;9.43;;;;;;;4.77;100.00;99697.50;5001984;28;20583;-73
2021/12/29 11:28:23;;;;;;;27.80;10.30;;;;;;;4.72;100.00;99700.19;5002189;28;20968;-73